Time;durP1;ratioP1;P1;durP2;ratioP2;P2;SDS_P1;SDS_P2;PMS_P1;PMS_P2;Temp;Humidity;BMP_temperature;BMP_pressure;BME280_temperature;BME280_humidity;BME280_pressure;Samples;Min_cycle;Max_cycle;Signal;HPM_P1;HPM_P2
2023/08/10 00:02:04;;;;;;;6.82;2.83;;;15.70;99.90;;;;;;5033537;28;20180;-45
2023/08/10 00:04:30;;;;;;;5.72;2.60;;;15.60;99.90;;;;;;5024993;28;20195;-46
2023/08/10 00:06:55;;;;;;;5.82;2.65;;;15.60;99.90;;;;;;5013576;28;20175;-45
2023/08/10 00:09:21;;;;;;;11.20;2.55;;;15.50;99.90;;;;;;5013670;28;20172;-45
2023/08/10 00:11:47;;;;;;;8.70;2.60;;;15.60;99.90;;;;;;5013324;28;20211;-46
2023/08/10 00:14:12;;;;;;;4.90;2.58;;;15.40;99.90;;;;;;5013144;28;20275;-45
2023/08/10 00:16:38;;;;;;;5.30;2.55;;;15.40;99.90;;;;;;5013555;28;20252;-46
2023/08/10 00:19:04;;;;;;;4.68;2.45;;;15.40;99.90;;;;;;5024631;28;20274;-46
2023/08/10 00:21:30;;;;;;;6.22;2.53;;;15.40;99.90;;;;;;5033515;28;20687;-46
2023/08/10 00:23:56;;;;;;;5.53;2.08;;;15.60;99.90;;;;;;5033177;28;20174;-46
2023/08/10 00:26:23;;;;;;;3.65;2.25;;;15.40;99.90;;;;;;5033099;28;20215;-45
2023/08/10 00:28:49;;;;;;;8.75;2.60;;;15.40;99.90;;;;;;5033375;28;20206;-45
2023/08/10 00:31:15;;;;;;;7.20;2.22;;;15.20;99.90;;;;;;5033700;28;20171;-46
2023/08/10 00:33:41;;;;;;;6.45;3.10;;;15.40;99.90;;;;;;5033021;28;20704;-45
2023/08/10 00:36:07;;;;;;;4.70;2.38;;;15.30;99.90;;;;;;5015211;28;20260;-45
2023/08/10 00:38:34;;;;;;;3.40;2.40;;;15.30;99.90;;;;;;5013430;28;20183;-46
2023/08/10 00:41:00;;;;;;;3.90;2.47;;;15.30;99.90;;;;;;5013256;28;20172;-46
2023/08/10 00:43:26;;;;;;;5.25;2.60;;;15.00;99.90;;;;;;5011715;28;20255;-45
2023/08/10 00:45:52;;;;;;;7.15;2.38;;;15.00;99.90;;;;;;5013242;28;20175;-45
2023/08/10 00:48:18;;;;;;;7.85;2.22;;;15.10;99.90;;;;;;5013513;28;20203;-45
2023/08/10 00:50:43;;;;;;;7.13;2.70;;;15.00;99.90;;;;;;5013171;28;20537;-45
2023/08/10 00:53:09;;;;;;;8.73;2.83;;;15.00;99.90;;;;;;5012329;28;20226;-45
2023/08/10 00:55:35;;;;;;;6.20;2.88;;;15.00;99.90;;;;;;5012783;28;20191;-45
2023/08/10 00:58:01;;;;;;;8.38;2.92;;;15.00;99.90;;;;;;5012666;28;20172;-45
2023/08/10 01:00:27;;;;;;;4.35;2.45;;;15.10;99.90;;;;;;5012779;28;20172;-46
2023/08/10 01:02:53;;;;;;;5.88;2.30;;;15.00;99.90;;;;;;5011482;28;20195;-45
2023/08/10 01:05:19;;;;;;;11.38;2.47;;;15.00;99.90;;;;;;5013094;28;20190;-46
2023/08/10 01:08:12;;;;;;;5.20;2.95;;;13.40;99.90;;;;;;5012920;28;20667;-45
2023/08/10 01:10:49;;;;;;;5.82;2.50;;;15.00;99.90;;;;;;5012514;28;20176;-45
2023/08/10 01:13:25;;;;;;;8.38;2.50;;;15.10;99.90;;;;;;5019384;28;20691;-45
2023/08/10 01:15:54;;;;;;;7.43;2.70;;;15.00;99.90;;;;;;5031615;28;20246;-45
2023/08/10 01:18:26;;;;;;;6.40;2.63;;;14.80;99.90;;;;;;5032096;28;20266;-45
2023/08/10 01:20:56;;;;;;;5.85;2.50;;;14.80;99.90;;;;;;5031993;28;20179;-45
2023/08/10 01:23:38;;;;;;;5.32;2.42;;;14.90;99.90;;;;;;5032077;28;20175;-46
2023/08/10 01:26:05;;;;;;;4.97;2.60;;;15.00;99.90;;;;;;5032291;28;20600;-46
2023/08/10 01:28:33;;;;;;;5.40;3.00;;;15.00;99.90;;;;;;5032202;28;20301;-46
2023/08/10 01:31:01;;;;;;;5.85;3.08;;;14.90;99.90;;;;;;5031955;28;20160;-45
2023/08/10 01:33:29;;;;;;;7.50;2.50;;;14.90;99.90;;;;;;5031803;28;20167;-45
2023/08/10 01:35:55;;;;;;;8.35;2.63;;;14.80;99.90;;;;;;5031679;28;20583;-46
2023/08/10 01:38:20;;;;;;;4.35;2.58;;;14.80;99.90;;;;;;5031229;28;20171;-45
2023/08/10 01:40:47;;;;;;;4.53;2.70;;;14.80;99.90;;;;;;5031077;28;20174;-46
2023/08/10 01:43:13;;;;;;;4.43;2.60;;;14.80;99.90;;;;;;5011949;28;20656;-46
2023/08/10 01:45:43;;;;;;;5.50;3.15;;;14.70;99.90;;;;;;5012091;28;20171;-46
2023/08/10 01:48:17;;;;;;;6.50;2.70;;;14.80;99.90;;;;;;5011892;28;20196;-46
2023/08/10 01:50:48;;;;;;;7.28;2.78;;;14.80;99.90;;;;;;5011920;28;20186;-46
2023/08/10 01:53:17;;;;;;;6.05;2.80;;;14.80;99.90;;;;;;5011967;28;20503;-46
2023/08/10 01:55:42;;;;;;;7.72;2.42;;;14.70;99.90;;;;;;5011878;28;20210;-46
2023/08/10 01:58:08;;;;;;;7.88;2.75;;;14.80;99.90;;;;;;5011892;28;20175;-46
2023/08/10 02:00:37;;;;;;;2.70;2.50;;;14.80;99.90;;;;;;5023653;28;20498;-45
2023/08/10 02:03:04;;;;;;;8.27;2.97;;;14.80;99.90;;;;;;5031232;28;20207;-45
2023/08/10 02:05:30;;;;;;;4.07;2.65;;;14.90;99.90;;;;;;5031472;28;20164;-46
2023/08/10 02:07:55;;;;;;;4.45;3.03;;;15.00;99.90;;;;;;5031254;28;20213;-45
2023/08/10 02:10:21;;;;;;;5.68;2.45;;;15.00;99.90;;;;;;5031195;28;20186;-45
2023/08/10 02:12:46;;;;;;;4.07;2.63;;;15.00;99.90;;;;;;5031537;28;20227;-46
2023/08/10 02:15:12;;;;;;;4.25;2.67;;;14.90;99.90;;;;;;5031024;28;20160;-45
2023/08/10 02:17:39;;;;;;;4.13;2.55;;;14.90;99.90;;;;;;5031100;28;20598;-47
2023/08/10 02:20:12;;;;;;;4.50;2.78;;;14.90;99.90;;;;;;5031389;28;20167;-46
2023/08/10 02:22:45;;;;;;;2.95;2.35;;;14.90;99.90;;;;;;5031422;28;20171;-46
2023/08/10 02:25:11;;;;;;;5.70;2.67;;;14.80;99.90;;;;;;5030808;28;20575;-45
2023/08/10 02:27:38;;;;;;;2.67;2.38;;;14.90;99.90;;;;;;5014262;28;20188;-45
2023/08/10 02:30:06;;;;;;;7.78;2.80;;;14.90;99.90;;;;;;5015644;28;20524;-46
2023/08/10 02:32:31;;;;;;;3.40;2.13;;;14.90;99.90;;;;;;5015577;28;20247;-45
2023/08/10 02:34:57;;;;;;;4.95;2.53;;;14.90;99.90;;;;;;5015515;28;20348;-46
2023/08/10 02:37:23;;;;;;;4.00;2.65;;;14.90;99.90;;;;;;5015437;28;20168;-46
2023/08/10 02:39:48;;;;;;;6.18;2.55;;;14.80;99.90;;;;;;5015802;28;20164;-46
2023/08/10 02:42:14;;;;;;;3.40;2.53;;;14.80;99.90;;;;;;5015822;28;20180;-46
2023/08/10 02:44:40;;;;;;;3.95;2.47;;;14.90;99.90;;;;;;5015377;28;20628;-46
2023/08/10 02:47:05;;;;;;;11.10;3.10;;;14.90;99.90;;;;;;5015222;28;20510;-46
2023/08/10 02:49:31;;;;;;;6.05;2.70;;;14.90;99.90;;;;;;5015317;28;20172;-46
2023/08/10 02:51:56;;;;;;;4.68;2.65;;;14.80;99.90;;;;;;5015176;28;20175;-46
2023/08/10 02:54:22;;;;;;;4.18;2.90;;;14.70;99.90;;;;;;5023229;28;20183;-46
2023/08/10 02:56:48;;;;;;;3.92;2.80;;;14.90;99.90;;;;;;5035423;28;20170;-46
2023/08/10 02:59:13;;;;;;;4.93;2.70;;;14.80;99.90;;;;;;5034850;28;20266;-46
2023/08/10 03:01:39;;;;;;;5.30;2.33;;;14.80;99.90;;;;;;5034811;28;20167;-47
2023/08/10 03:04:05;;;;;;;4.85;2.78;;;14.80;99.90;;;;;;5034446;28;20230;-45
2023/08/10 03:06:31;;;;;;;5.13;2.70;;;14.80;99.90;;;;;;5034927;28;20179;-46
2023/08/10 03:08:57;;;;;;;3.88;2.90;;;14.70;99.90;;;;;;5034612;28;20199;-46
2023/08/10 03:11:23;;;;;;;4.20;3.13;;;14.60;99.90;;;;;;5034599;28;20627;-45
2023/08/10 03:13:48;;;;;;;5.65;2.67;;;14.60;99.90;;;;;;5034808;28;20674;-45
2023/08/10 03:16:14;;;;;;;3.78;2.80;;;14.60;99.90;;;;;;5035026;28;20209;-46
2023/08/10 03:18:39;;;;;;;3.25;2.45;;;14.60;99.90;;;;;;5034515;28;20171;-46
2023/08/10 03:21:05;;;;;;;7.05;2.88;;;14.60;99.90;;;;;;5034446;28;20171;-45
2023/08/10 03:23:31;;;;;;;3.70;2.75;;;14.50;99.90;;;;;;5033257;28;20187;-46
2023/08/10 03:25:56;;;;;;;5.07;2.78;;;14.50;99.90;;;;;;5033780;28;20176;-45
2023/08/10 03:28:22;;;;;;;7.55;2.67;;;14.40;99.90;;;;;;5034298;28;20705;-46
2023/08/10 03:30:48;;;;;;;3.50;2.70;;;14.30;99.90;;;;;;5034915;28;20309;-46
2023/08/10 03:33:14;;;;;;;9.15;2.88;;;14.30;99.90;;;;;;5034628;28;20254;-46
2023/08/10 03:35:40;;;;;;;3.83;2.88;;;14.30;99.90;;;;;;5034112;28;20251;-46
2023/08/10 03:38:06;;;;;;;4.53;2.65;;;14.30;99.90;;;;;;5033324;28;20167;-45
2023/08/10 03:40:31;;;;;;;6.88;3.40;;;14.30;99.90;;;;;;5034060;28;20259;-45
2023/08/10 03:42:57;;;;;;;4.13;3.00;;;14.30;99.90;;;;;;5033935;28;20195;-46
2023/08/10 03:45:23;;;;;;;6.20;2.90;;;14.30;99.90;;;;;;5034026;28;20168;-46
2023/08/10 03:47:48;;;;;;;5.55;2.88;;;14.20;99.90;;;;;;5033879;28;20695;-46
2023/08/10 03:50:14;;;;;;;9.23;2.97;;;14.20;99.90;;;;;;5034175;28;20723;-45
2023/08/10 03:52:40;;;;;;;6.43;3.17;;;14.10;99.90;;;;;;5033699;28;20199;-45
2023/08/10 03:55:06;;;;;;;4.60;2.70;;;14.00;99.90;;;;;;5016974;28;20176;-45
2023/08/10 03:57:32;;;;;;;3.60;2.63;;;14.00;99.90;;;;;;5014220;28;20497;-46
2023/08/10 03:59:58;;;;;;;3.00;2.75;;;14.10;99.90;;;;;;5014111;28;20172;-46
2023/08/10 04:02:24;;;;;;;5.68;3.22;;;14.10;99.90;;;;;;5012580;28;20222;-46
2023/08/10 04:04:49;;;;;;;7.45;3.28;;;14.00;99.90;;;;;;5013755;28;20172;-45
2023/08/10 04:07:15;;;;;;;4.25;3.10;;;14.10;99.90;;;;;;5014380;28;20602;-46
2023/08/10 04:09:46;;;;;;;5.05;3.00;;;14.10;99.90;;;;;;5012459;28;20775;-45
2023/08/10 04:12:12;;;;;;;7.10;3.10;;;14.10;99.90;;;;;;5013429;28;20246;-46
2023/08/10 04:14:37;;;;;;;10.52;2.85;;;14.10;99.90;;;;;;5013661;28;20204;-46
2023/08/10 04:17:03;;;;;;;4.65;3.05;;;14.10;99.90;;;;;;5013559;28;20159;-45
2023/08/10 04:19:30;;;;;;;5.95;3.03;;;14.10;99.90;;;;;;5013542;28;20173;-46
2023/08/10 04:21:56;;;;;;;6.57;2.78;;;14.10;99.90;;;;;;5013518;28;20156;-45
2023/08/10 04:24:22;;;;;;;5.82;3.70;;;14.10;99.90;;;;;;5023265;28;20529;-45
2023/08/10 04:26:47;;;;;;;7.90;3.10;;;14.00;99.90;;;;;;5033604;28;20160;-45
2023/08/10 04:29:13;;;;;;;5.15;2.53;;;14.00;99.90;;;;;;5033555;28;20207;-45
2023/08/10 04:31:38;;;;;;;6.82;3.15;;;14.10;99.90;;;;;;5031607;28;20169;-45
2023/08/10 04:34:04;;;;;;;9.38;3.92;;;14.10;99.90;;;;;;5033237;28;20254;-45
2023/08/10 04:36:29;;;;;;;17.73;3.17;;;14.10;99.90;;;;;;5033103;28;20194;-46
2023/08/10 04:38:55;;;;;;;6.68;3.10;;;14.10;99.90;;;;;;5032877;28;20284;-46
2023/08/10 04:41:21;;;;;;;3.90;3.10;;;14.10;99.90;;;;;;5032724;28;20191;-45
2023/08/10 04:43:46;;;;;;;6.32;3.25;;;14.20;99.90;;;;;;5033036;28;20250;-45
2023/08/10 04:46:12;;;;;;;8.70;3.40;;;14.10;99.90;;;;;;5032639;28;20177;-45
2023/08/10 04:48:37;;;;;;;4.93;3.25;;;14.10;99.90;;;;;;5032815;28;20307;-45
2023/08/10 04:51:04;;;;;;;4.43;3.47;;;14.10;99.90;;;;;;5031579;28;20514;-46
2023/08/10 04:53:29;;;;;;;4.75;3.00;;;14.30;99.90;;;;;;5032422;28;20414;-46
2023/08/10 04:55:55;;;;;;;5.70;3.25;;;14.30;99.90;;;;;;5032587;28;20178;-46
2023/08/10 04:58:21;;;;;;;5.00;3.28;;;14.40;99.90;;;;;;5032643;28;20527;-45
2023/08/10 05:00:46;;;;;;;4.95;2.83;;;14.40;99.90;;;;;;5032941;28;20194;-46
2023/08/10 05:03:12;;;;;;;5.13;3.08;;;14.70;99.90;;;;;;5032464;28;20178;-45
2023/08/10 05:05:40;;;;;;;5.38;3.28;;;14.60;99.90;;;;;;5032302;28;20171;-45
2023/08/10 05:08:07;;;;;;;5.93;3.20;;;14.70;99.90;;;;;;5032595;28;20215;-46
2023/08/10 05:10:33;;;;;;;8.65;4.00;;;14.80;99.90;;;;;;5032645;28;20172;-46
2023/08/10 05:12:58;;;;;;;4.50;3.00;;;14.80;99.90;;;;;;5032098;28;20222;-46
2023/08/10 05:15:24;;;;;;;5.82;3.10;;;14.70;99.90;;;;;;5032251;28;20168;-45
2023/08/10 05:17:50;;;;;;;5.97;3.10;;;15.00;99.90;;;;;;5032417;28;20569;-46
2023/08/10 05:20:15;;;;;;;5.82;2.97;;;14.90;99.90;;;;;;5032546;28;20171;-46
2023/08/10 05:22:42;;;;;;;6.97;3.47;;;14.90;99.90;;;;;;5030903;28;20229;-46
2023/08/10 05:25:09;;;;;;;6.68;3.03;;;15.00;99.90;;;;;;5031610;28;20174;-45
2023/08/10 05:27:37;;;;;;;7.43;3.55;;;15.00;99.90;;;;;;5032277;28;20199;-46
2023/08/10 05:30:05;;;;;;;5.18;3.15;;;15.10;99.90;;;;;;5032240;28;20182;-45
2023/08/10 05:32:30;;;;;;;5.57;2.88;;;15.10;99.90;;;;;;5020478;28;20167;-48
2023/08/10 05:34:56;;;;;;;5.90;3.40;;;15.10;99.90;;;;;;5012438;28;20179;-46
2023/08/10 05:37:22;;;;;;;4.28;3.35;;;15.10;99.90;;;;;;5012124;28;20172;-47
2023/08/10 05:39:47;;;;;;;6.85;2.90;;;15.20;99.90;;;;;;5012744;28;20176;-45
2023/08/10 05:42:13;;;;;;;10.85;3.10;;;13.20;99.90;;;;;;5012481;28;20629;-45
2023/08/10 05:44:39;;;;;;;7.57;3.10;;;15.30;99.90;;;;;;5012512;28;20172;-47
2023/08/10 05:47:05;;;;;;;7.93;3.60;;;15.40;99.90;;;;;;5011849;28;20226;-47
2023/08/10 05:49:30;;;;;;;7.80;3.45;;;15.50;99.90;;;;;;5011937;28;20247;-46
2023/08/10 05:51:56;;;;;;;5.70;3.30;;;15.60;99.90;;;;;;5018305;28;20199;-47
2023/08/10 05:54:21;;;;;;;6.35;3.50;;;15.80;99.90;;;;;;5030087;28;20210;-46
2023/08/10 05:56:47;;;;;;;9.30;2.55;;;15.80;99.90;;;;;;5030627;28;20198;-44
2023/08/10 05:59:12;;;;;;;5.32;2.95;;;15.90;99.90;;;;;;5030285;28;20164;-46
2023/08/10 06:01:43;;;;;;;6.70;3.00;;;16.10;99.90;;;;;;5028995;28;20184;-48
2023/08/10 06:04:10;;;;;;;8.75;3.53;;;16.20;99.90;;;;;;5029977;28;20169;-50
2023/08/10 06:06:36;;;;;;;7.45;2.60;;;16.20;99.90;;;;;;5029937;28;20179;-46
2023/08/10 06:09:02;;;;;;;11.18;3.40;;;16.30;99.90;;;;;;5029705;28;20213;-47
2023/08/10 06:11:27;;;;;;;8.18;2.90;;;16.40;99.90;;;;;;5029404;28;20175;-51
2023/08/10 06:13:53;;;;;;;5.60;2.85;;;16.40;99.90;;;;;;5029759;28;20235;-47
2023/08/10 06:16:18;;;;;;;7.68;2.88;;;16.40;99.90;;;;;;5029761;28;20627;-49
2023/08/10 06:18:44;;;;;;;6.97;3.10;;;16.50;99.90;;;;;;5030171;28;20203;-47
2023/08/10 06:21:10;;;;;;;7.18;2.65;;;16.70;99.90;;;;;;5029625;28;20172;-48
2023/08/10 06:23:35;;;;;;;8.13;2.80;;;16.60;99.90;;;;;;5030088;28;20205;-48
2023/08/10 06:26:02;;;;;;;4.80;2.15;;;16.70;99.90;;;;;;5028622;28;20171;-47
2023/08/10 06:28:27;;;;;;;8.68;2.70;;;16.70;99.90;;;;;;5029475;28;20705;-48
2023/08/10 06:30:53;;;;;;;7.85;2.72;;;16.90;99.90;;;;;;5029625;28;20168;-47
2023/08/10 06:33:19;;;;;;;5.35;1.98;;;17.00;99.90;;;;;;5029292;28;20258;-48
2023/08/10 06:35:44;;;;;;;7.55;2.20;;;17.00;99.90;;;;;;5029919;28;20176;-47
2023/08/10 06:38:10;;;;;;;2.15;1.45;;;17.20;99.90;;;;;;5029527;28;20582;-47
2023/08/10 06:40:36;;;;;;;4.35;1.90;;;17.20;99.90;;;;;;5029473;28;20163;-47
2023/08/10 06:43:01;;;;;;;3.88;2.10;;;17.30;99.90;;;;;;5029498;28;20233;-47
2023/08/10 06:45:27;;;;;;;6.18;1.85;;;17.40;99.90;;;;;;5029239;28;20199;-47
2023/08/10 06:47:53;;;;;;;4.00;2.20;;;17.40;99.90;;;;;;5029588;28;20586;-49
2023/08/10 06:50:18;;;;;;;10.30;2.25;;;17.40;99.90;;;;;;5028122;28;20163;-48
2023/08/10 06:52:45;;;;;;;7.90;2.50;;;17.50;99.90;;;;;;5030082;28;20189;-47
2023/08/10 06:55:11;;;;;;;3.28;1.67;;;17.60;99.90;;;;;;5029666;28;20175;-47
2023/08/10 06:57:37;;;;;;;4.57;1.58;;;17.70;99.90;;;;;;5029415;28;20172;-47
2023/08/10 07:00:06;;;;;;;4.13;1.77;;;17.90;99.90;;;;;;5029308;28;20530;-47
2023/08/10 07:02:32;;;;;;;4.28;1.85;;;17.90;99.90;;;;;;5029135;28;20654;-47
2023/08/10 07:04:58;;;;;;;8.73;2.10;;;18.00;99.90;;;;;;5029443;28;20215;-47
2023/08/10 07:07:24;;;;;;;7.53;1.70;;;17.90;99.90;;;;;;5029320;28;20191;-47
2023/08/10 07:09:49;;;;;;;4.55;1.73;;;18.10;99.90;;;;;;5029445;28;20179;-48
2023/08/10 07:12:16;;;;;;;3.38;1.80;;;18.10;99.90;;;;;;5029542;28;20756;-47
2023/08/10 07:14:41;;;;;;;6.80;1.65;;;18.30;99.90;;;;;;5030816;28;20178;-47
2023/08/10 07:17:07;;;;;;;5.82;1.80;;;18.30;99.90;;;;;;5033063;28;20167;-47
2023/08/10 07:19:34;;;;;;;4.78;1.85;;;19.20;99.90;;;;;;5032974;28;20628;-47
2023/08/10 07:21:59;;;;;;;5.75;1.30;;;18.40;99.90;;;;;;5032599;28;20167;-48
2023/08/10 07:24:25;;;;;;;5.28;2.00;;;18.40;99.90;;;;;;5032845;28;20540;-48
2023/08/10 07:26:52;;;;;;;2.33;1.33;;;18.60;99.90;;;;;;5032589;28;20662;-47
2023/08/10 07:29:18;;;;;;;2.80;1.25;;;18.50;99.90;;;;;;5032590;28;20248;-47
2023/08/10 07:31:44;;;;;;;3.53;1.58;;;18.70;99.90;;;;;;5031594;28;20176;-47
2023/08/10 07:34:10;;;;;;;2.45;1.40;;;18.80;99.90;;;;;;5032758;28;20171;-47
2023/08/10 07:36:36;;;;;;;5.15;1.75;;;18.90;99.90;;;;;;5032596;28;20189;-47
2023/08/10 07:39:03;;;;;;;2.22;1.45;;;18.90;99.90;;;;;;5032502;28;20190;-47
2023/08/10 07:41:29;;;;;;;4.53;1.48;;;19.00;99.90;;;;;;5016046;28;20180;-47
2023/08/10 07:43:55;;;;;;;6.15;1.75;;;19.10;99.90;;;;;;5012615;28;20251;-47
2023/08/10 07:46:20;;;;;;;3.95;1.38;;;19.30;99.90;;;;;;5012669;28;20164;-47
2023/08/10 07:48:46;;;;;;;4.03;1.88;;;19.30;99.90;;;;;;5012858;28;20566;-47
2023/08/10 07:51:12;;;;;;;1.88;1.58;;;19.40;99.90;;;;;;5013129;28;20241;-49
2023/08/10 07:53:38;;;;;;;3.38;1.38;;;19.50;99.90;;;;;;5012367;28;20199;-47
2023/08/10 07:56:04;;;;;;;5.68;1.48;;;19.50;99.90;;;;;;5011077;28;20203;-48
2023/08/10 07:58:30;;;;;;;6.70;1.40;;;19.30;99.90;;;;;;5012471;28;20172;-48
2023/08/10 08:00:55;;;;;;;3.15;1.60;;;19.50;99.90;;;;;;5012326;28;20172;-48
2023/08/10 08:03:21;;;;;;;1.75;1.50;;;19.50;99.90;;;;;;5028151;28;20190;-48
2023/08/10 08:05:47;;;;;;;2.00;1.55;;;19.60;99.90;;;;;;5012376;28;20661;-47
2023/08/10 08:08:13;;;;;;;3.92;1.60;;;19.70;99.90;;;;;;5012421;28;20207;-47
2023/08/10 08:10:38;;;;;;;2.72;1.52;;;19.80;99.90;;;;;;5012306;28;20603;-47
2023/08/10 08:13:06;;;;;;;4.72;1.70;;;19.90;99.90;;;;;;5012037;28;20705;-47
2023/08/10 08:15:32;;;;;;;3.88;1.80;;;20.00;99.90;;;;;;5012447;28;20168;-47
2023/08/10 08:18:40;;;;;;;3.38;1.40;;;20.00;99.90;;;;;;5010883;28;20200;-47
2023/08/10 08:21:06;;;;;;;3.08;1.60;;;19.90;99.90;;;;;;5012020;28;20210;-47
2023/08/10 08:23:31;;;;;;;4.72;1.60;;;19.70;99.90;;;;;;5012034;28;20195;-47
2023/08/10 08:25:57;;;;;;;6.05;2.03;;;19.80;99.90;;;;;;5011738;28;20234;-47
2023/08/10 08:28:23;;;;;;;6.75;1.65;;;19.90;99.90;;;;;;5011751;28;20227;-47
2023/08/10 08:30:50;;;;;;;5.45;1.80;;;19.90;99.90;;;;;;5011725;28;20176;-48
2023/08/10 08:33:17;;;;;;;5.43;1.73;;;20.00;99.90;;;;;;5031645;28;20191;-47
2023/08/10 08:35:47;;;;;;;2.58;1.42;;;20.30;99.90;;;;;;5031977;28;20230;-47
2023/08/10 08:38:16;;;;;;;21.15;12.75;;;20.50;99.90;;;;;;5031903;28;20225;-47
2023/08/10 08:40:42;;;;;;;3.13;1.85;;;20.50;99.90;;;;;;5031787;28;20167;-47
2023/08/10 08:43:09;;;;;;;7.40;1.83;;;20.50;99.90;;;;;;5031317;28;20880;-47
2023/08/10 08:45:35;;;;;;;5.03;1.65;;;20.60;99.90;;;;;;5031434;28;20175;-47
2023/08/10 08:48:03;;;;;;;4.55;1.90;;;20.80;99.90;;;;;;5030971;28;20678;-47
2023/08/10 08:50:29;;;;;;;9.43;5.57;;;20.90;99.90;;;;;;5031518;28;20198;-47
2023/08/10 08:52:55;;;;;;;18.33;12.52;;;20.90;99.90;;;;;;5031298;28;20650;-47
2023/08/10 08:55:21;;;;;;;6.82;2.75;;;20.80;99.90;;;;;;5031240;28;20182;-47
2023/08/10 08:57:47;;;;;;;6.00;1.60;;;21.00;99.90;;;;;;5031123;28;20167;-47
2023/08/10 09:00:14;;;;;;;4.30;1.73;;;21.00;99.90;;;;;;5031468;28;20172;-47
2023/08/10 09:02:40;;;;;;;7.35;2.00;;;20.90;99.90;;;;;;5016612;28;20215;-47
2023/08/10 09:05:07;;;;;;;8.82;1.80;;;21.00;99.90;;;;;;5011327;28;20187;-47
2023/08/10 09:07:32;;;;;;;6.00;1.92;;;21.10;99.90;;;;;;5011131;28;20290;-47
2023/08/10 09:09:58;;;;;;;5.88;1.92;;;21.10;99.90;;;;;;5010870;28;20263;-48
2023/08/10 09:12:34;;;;;;;7.55;2.20;;;21.40;99.90;;;;;;5010924;28;20231;-47
2023/08/10 09:15:09;;;;;;;9.45;3.28;;;21.50;99.90;;;;;;5011067;28;20559;-47
2023/08/10 09:17:46;;;;;;;5.72;1.85;;;21.50;99.90;;;;;;5010952;28;20167;-47
2023/08/10 09:20:18;;;;;;;6.22;2.25;;;21.80;99.90;;;;;;5011666;28;20199;-47
2023/08/10 09:22:44;;;;;;;16.50;10.23;;;21.90;99.90;;;;;;5011452;28;20256;-47
2023/08/10 09:25:09;;;;;;;6.15;2.20;;;22.00;99.90;;;;;;5011030;28;20176;-47
2023/08/10 09:27:35;;;;;;;7.28;2.03;;;21.70;99.90;;;;;;5010780;28;20210;-47
2023/08/10 09:30:03;;;;;;;5.28;1.70;;;22.00;99.90;;;;;;5010734;28;20175;-48
2023/08/10 09:32:29;;;;;;;5.13;2.45;;;22.10;99.90;;;;;;5023353;28;20164;-47
2023/08/10 09:34:55;;;;;;;15.88;12.85;;;22.40;99.90;;;;;;5029333;28;20179;-48
2023/08/10 09:37:22;;;;;;;9.38;5.28;;;22.30;99.90;;;;;;5029810;28;20163;-48
2023/08/10 09:39:54;;;;;;;7.88;2.15;;;22.20;99.90;;;;;;5030356;28;20179;-48
2023/08/10 09:42:19;;;;;;;11.45;8.88;;;22.40;99.90;;;;;;5030292;28;20243;-47
2023/08/10 09:44:50;;;;;;;6.60;3.85;;;22.40;99.90;;;;;;5030667;28;20337;-48
2023/08/10 09:47:16;;;;;;;6.30;2.50;;;22.50;99.90;;;;;;5030549;28;20171;-48
2023/08/10 09:50:05;;;;;;;6.43;1.70;;;22.50;99.90;;;;;;5030509;28;20206;-48
2023/08/10 09:52:32;;;;;;;8.23;2.03;;;22.40;99.90;;;;;;5030024;28;20643;-49
2023/08/10 09:54:58;;;;;;;5.93;1.85;;;22.50;99.90;;;;;;5030356;28;20190;-48
2023/08/10 09:57:24;;;;;;;6.90;2.20;;;22.50;99.90;;;;;;5029984;28;20179;-49
2023/08/10 09:59:54;;;;;;;9.00;3.05;;;22.70;99.90;;;;;;5029747;28;20167;-49
2023/08/10 10:02:20;;;;;;;3.72;1.98;;;22.90;99.90;;;;;;5029130;28;20653;-51
2023/08/10 10:04:47;;;;;;;7.13;2.10;;;22.70;99.90;;;;;;5030353;28;20182;-46
2023/08/10 10:07:14;;;;;;;4.45;1.67;;;22.60;99.90;;;;;;5029627;28;20257;-46
2023/08/10 10:09:43;;;;;;;4.22;3.30;;;22.70;99.90;;;;;;5029723;28;20175;-46
2023/08/10 10:12:13;;;;;;;13.80;2.13;;;22.90;99.90;;;;;;5029660;28;20577;-48
2023/08/10 10:14:44;;;;;;;6.40;1.92;;;23.00;99.90;;;;;;5029990;28;20178;-48
2023/08/10 10:17:11;;;;;;;6.38;1.90;;;23.20;99.90;;;;;;5029538;28;20198;-48
2023/08/10 10:19:37;;;;;;;4.97;1.83;;;23.40;99.90;;;;;;5029650;28;20171;-49
2023/08/10 10:22:04;;;;;;;5.20;1.95;;;23.10;99.90;;;;;;5029349;28;20168;-48
2023/08/10 10:24:33;;;;;;;3.75;1.90;;;23.20;99.90;;;;;;5029981;28;20174;-48
2023/08/10 10:27:02;;;;;;;2.35;1.90;;;23.10;99.90;;;;;;5029571;28;20183;-48
2023/08/10 10:29:41;;;;;;;3.92;1.58;;;23.40;99.90;;;;;;5029704;28;20575;-48
2023/08/10 10:32:10;;;;;;;5.13;1.80;;;23.40;99.90;;;;;;5017545;28;20172;-50
2023/08/10 10:34:37;;;;;;;3.20;1.80;;;23.40;99.90;;;;;;5009715;28;20175;-48
2023/08/10 10:37:29;;;;;;;2.80;1.30;;;23.20;99.90;;;;;;5010023;28;20195;-49
2023/08/10 10:40:16;;;;;;;4.68;1.58;;;23.40;99.90;;;;;;5010086;28;20175;-48
2023/08/10 10:43:01;;;;;;;4.53;1.38;;;23.40;99.90;;;;;;5029335;28;20270;-49
2023/08/10 10:45:26;;;;;;;2.67;1.63;;;23.30;99.90;;;;;;5029507;28;20274;-48
2023/08/10 10:47:52;;;;;;;3.78;1.42;;;23.40;99.90;;;;;;5028248;28;20730;-49
2023/08/10 10:50:19;;;;;;;4.45;1.77;;;23.60;99.90;;;;;;5033308;28;20576;-49
2023/08/10 10:53:04;;;;;;;2.95;1.60;;;23.70;99.90;;;;;;5033919;28;20176;-49
2023/08/10 10:55:35;;;;;;;2.50;1.60;;;23.80;99.90;;;;;;5033416;28;20171;-49
2023/08/10 10:58:06;;;;;;;3.97;1.92;;;23.60;99.90;;;;;;5033345;28;20175;-49
2023/08/10 11:00:33;;;;;;;3.38;2.38;;;23.70;99.90;;;;;;5033340;28;20160;-47
2023/08/10 11:03:01;;;;;;;6.63;2.30;;;23.70;99.90;;;;;;5016518;28;20198;-47
2023/08/10 11:05:27;;;;;;;8.70;2.03;;;23.80;99.90;;;;;;5033173;28;20174;-48
2023/08/10 11:07:53;;;;;;;2.63;1.70;;;23.90;99.90;;;;;;5031831;28;20198;-49
2023/08/10 11:10:24;;;;;;;5.03;1.67;;;23.90;99.90;;;;;;5033333;28;20177;-47
2023/08/10 11:12:50;;;;;;;3.65;2.05;;;24.20;99.90;;;;;;5031671;28;20272;-47
2023/08/10 11:15:17;;;;;;;5.35;1.80;;;24.40;99.90;;;;;;5032821;28;20290;-49
2023/08/10 11:17:48;;;;;;;3.03;2.10;;;24.40;99.90;;;;;;5033488;28;20195;-49
2023/08/10 11:20:14;;;;;;;4.35;2.25;;;24.30;99.90;;;;;;5033187;28;20163;-47
2023/08/10 11:22:44;;;;;;;5.57;1.90;;;24.40;99.90;;;;;;5032356;28;20178;-47
2023/08/10 11:25:15;;;;;;;6.20;2.60;;;24.50;99.90;;;;;;5032480;28;20167;-49
2023/08/10 11:27:47;;;;;;;4.10;2.83;;;24.50;99.90;;;;;;5032971;28;20682;-49
2023/08/10 11:30:15;;;;;;;4.65;3.40;;;24.50;99.90;;;;;;5032975;28;20272;-49
2023/08/10 11:32:42;;;;;;;6.63;3.53;;;24.40;99.90;;;;;;5013980;28;20184;-49
2023/08/10 11:35:09;;;;;;;42.33;32.15;;;24.60;99.90;;;;;;5012626;28;20172;-47
2023/08/10 11:37:38;;;;;;;12.38;8.45;;;24.70;99.90;;;;;;5012411;28;20648;-47
2023/08/10 11:40:23;;;;;;;7.07;5.22;;;24.80;99.90;;;;;;5012673;28;20179;-48
2023/08/10 11:42:52;;;;;;;28.08;19.98;;;24.50;99.90;;;;;;5012535;28;20706;-47
2023/08/10 11:45:20;;;;;;;38.78;26.38;;;24.60;99.90;;;;;;5012448;28;20183;-47
2023/08/10 11:47:58;;;;;;;11.75;7.63;;;24.60;99.90;;;;;;5012394;28;20274;-47
2023/08/10 11:50:29;;;;;;;12.88;7.30;;;24.60;99.90;;;;;;5012109;28;20167;-47
2023/08/10 11:52:55;;;;;;;28.05;20.45;;;24.80;99.90;;;;;;5012346;28;20163;-47
2023/08/10 11:55:21;;;;;;;17.52;11.82;;;24.90;99.90;;;;;;5012193;28;20179;-47
2023/08/10 11:57:50;;;;;;;12.88;8.70;;;24.70;99.90;;;;;;5012630;28;20176;-48
2023/08/10 12:00:30;;;;;;;10.05;6.35;;;24.70;99.90;;;;;;5012193;28;20183;-46
2023/08/10 12:03:00;;;;;;;9.70;6.35;;;24.90;99.90;;;;;;5032129;28;20186;-47
2023/08/10 12:05:50;;;;;;;8.65;5.15;;;25.00;99.90;;;;;;5031807;28;20174;-47
2023/08/10 12:08:21;;;;;;;5.40;4.10;;;25.00;99.90;;;;;;5031827;28;20194;-47
2023/08/10 12:10:51;;;;;;;7.35;3.58;;;25.10;99.90;;;;;;5015546;28;20176;-47
2023/08/10 12:13:18;;;;;;;6.05;3.40;;;25.00;99.30;;;;;;5010541;28;20245;-47
2023/08/10 12:15:49;;;;;;;5.63;4.40;;;24.80;99.90;;;;;;5012376;28;20184;-47
2023/08/10 12:18:17;;;;;;;13.57;11.25;;;25.20;99.90;;;;;;5012235;28;20175;-47
2023/08/10 12:20:44;;;;;;;6.63;4.35;;;25.40;99.90;;;;;;5012356;28;20570;-47
2023/08/10 12:23:10;;;;;;;6.35;4.85;;;25.30;99.90;;;;;;5011608;28;20258;-47
2023/08/10 12:25:36;;;;;;;12.00;6.80;;;25.30;99.90;;;;;;5011728;28;20175;-46
2023/08/10 12:28:02;;;;;;;13.02;9.02;;;25.40;99.90;;;;;;5011549;28;20354;-47
2023/08/10 12:30:27;;;;;;;9.30;6.38;;;25.50;99.90;;;;;;5011981;28;20251;-47
2023/08/10 12:32:53;;;;;;;6.03;3.92;;;25.50;99.90;;;;;;5031134;28;20175;-47
2023/08/10 12:35:19;;;;;;;13.38;8.57;;;25.80;99.90;;;;;;5031564;28;20171;-47
2023/08/10 12:37:46;;;;;;;8.23;5.53;;;25.80;99.90;;;;;;5032176;28;20531;-47
2023/08/10 12:40:12;;;;;;;7.13;4.55;;;25.60;99.90;;;;;;5032096;28;20202;-47
2023/08/10 12:42:38;;;;;;;7.35;4.80;;;25.60;99.90;;;;;;5031677;28;20531;-47
2023/08/10 12:45:06;;;;;;;6.82;3.70;;;25.70;99.90;;;;;;5031423;28;20182;-48
2023/08/10 12:47:32;;;;;;;14.00;8.93;;;25.60;99.00;;;;;;5031074;28;20170;-47